createdAt,value
2022-10-29T00:01:08.640Z,80.34
2022-10-29T00:03:41.663Z,80.68
2022-10-29T00:06:12.036Z,80.67
2022-10-29T00:08:41.125Z,80.84
2022-10-29T00:11:14.452Z,80.78
2022-10-29T00:13:43.129Z,80.93
2022-10-29T00:16:17.084Z,81.27
2022-10-29T00:18:45.916Z,80.97
2022-10-29T00:21:16.751Z,80.89
2022-10-29T00:23:44.734Z,80.93
2022-10-29T00:26:13.004Z,80.91
2022-10-29T00:28:41.057Z,80.88
2022-10-29T00:31:14.030Z,80.78
2022-10-29T00:33:43.046Z,80.68
2022-10-29T00:36:14.941Z,80.64
2022-10-29T00:38:43.372Z,80.45
2022-10-29T00:41:13.910Z,80.34
2022-10-29T00:43:47.466Z,80.27
2022-10-29T00:46:23.650Z,80.28
2022-10-29T00:48:56.154Z,80.67
2022-10-29T00:51:25.679Z,80.34
2022-10-29T00:53:58.101Z,80.21
2022-10-29T00:56:28.927Z,80.51
2022-10-29T00:58:57.564Z,80.94
2022-10-29T01:01:25.737Z,80.78
2022-10-29T01:03:55.443Z,80.42
2022-10-29T01:06:24.605Z,80.46
2022-10-29T01:08:53.882Z,80.21
2022-10-29T01:11:54.408Z,80.20
2022-10-29T01:14:44.336Z,79.98
2022-10-29T01:17:44.969Z,80.21
2022-10-29T01:20:32.785Z,80.23
2022-10-29T01:23:34.375Z,80.21
2022-10-29T01:26:35.567Z,80.35
2022-10-29T01:29:33.464Z,80.57
2022-10-29T01:32:09.624Z,80.63
2022-10-29T01:34:53.006Z,80.80
2022-10-29T01:37:44.749Z,81.37
2022-10-29T01:40:31.954Z,81.28
2022-10-29T01:43:12.195Z,81.05
2022-10-29T01:45:47.561Z,81.07
2022-10-29T01:48:22.557Z,80.94
2022-10-29T01:50:56.362Z,80.67
2022-10-29T01:53:25.769Z,80.87
2022-10-29T01:55:54.243Z,80.62
2022-10-29T01:58:24.231Z,80.45
2022-10-29T02:01:12.395Z,80.41
2022-10-29T02:04:13.681Z,80.27
2022-10-29T02:06:54.983Z,80.35
2022-10-29T02:09:41.976Z,80.34
2022-10-29T02:12:23.358Z,80.48
2022-10-29T02:15:02.998Z,80.46
2022-10-29T02:17:35.262Z,80.66
2022-10-29T02:20:06.412Z,80.66
2022-10-29T02:22:34.311Z,80.76
2022-10-29T02:25:04.185Z,80.84
2022-10-29T02:27:32.237Z,80.90
2022-10-29T02:30:00.126Z,80.88
2022-10-29T02:32:28.252Z,80.85
2022-10-29T02:34:56.071Z,80.85
2022-10-29T02:37:23.887Z,80.87
2022-10-29T02:39:51.728Z,81.26
2022-10-29T02:42:19.562Z,81.36
2022-10-29T02:44:47.383Z,81.19
2022-10-29T02:47:17.050Z,81.19
2022-10-29T02:49:44.921Z,81.27
2022-10-29T02:52:12.844Z,81.28
2022-10-29T02:54:40.771Z,81.27
2022-10-29T02:57:08.953Z,81.55
2022-10-29T02:59:37.034Z,81.99
2022-10-29T03:02:05.250Z,82.16
2022-10-29T03:04:33.866Z,81.79
2022-10-29T03:07:02.203Z,81.56
2022-10-29T03:09:30.211Z,81.49
2022-10-29T03:11:58.017Z,81.60
2022-10-29T03:14:25.894Z,81.71
2022-10-29T03:16:53.806Z,81.70
2022-10-29T03:19:21.626Z,81.89
2022-10-29T03:21:52.189Z,82.11
2022-10-29T03:24:21.332Z,82.11
2022-10-29T03:26:49.572Z,82.26
2022-10-29T03:29:17.995Z,82.23
2022-10-29T03:31:46.245Z,82.13
2022-10-29T03:34:14.224Z,82.14
2022-10-29T03:36:42.120Z,81.97
2022-10-29T03:39:10.062Z,81.99
2022-10-29T03:41:37.884Z,81.96
2022-10-29T03:44:05.758Z,81.79
2022-10-29T03:46:34.918Z,81.97
2022-10-29T03:49:02.751Z,81.66
2022-10-29T03:51:30.677Z,81.84
2022-10-29T03:53:58.586Z,81.77
2022-10-29T03:56:26.362Z,81.72
2022-10-29T03:58:54.373Z,81.62
2022-10-29T04:01:22.418Z,81.66
2022-10-29T04:03:50.537Z,81.62
2022-10-29T04:06:18.858Z,81.69
2022-10-29T04:08:47.355Z,81.93
2022-10-29T04:11:15.178Z,82.03
2022-10-29T04:13:42.990Z,81.90
2022-10-29T04:16:10.884Z,82.08
2022-10-29T04:18:39.427Z,81.95
2022-10-29T04:29:32.942Z,81.71
2022-10-29T04:32:00.811Z,81.85
2022-10-29T04:34:28.665Z,81.60
2022-10-29T04:36:56.741Z,81.63
2022-10-29T04:39:24.624Z,81.80
2022-10-29T04:41:52.410Z,81.62
2022-10-29T04:44:20.313Z,81.66
2022-10-29T04:46:48.389Z,81.70
2022-10-29T04:49:16.396Z,81.48
2022-10-29T04:51:44.682Z,81.66
2022-10-29T04:54:12.620Z,81.67
2022-10-29T04:56:40.409Z,81.60
2022-10-29T04:59:08.465Z,81.72
2022-10-29T05:04:04.489Z,81.57
2022-10-29T05:06:32.561Z,81.98
2022-10-29T05:09:00.897Z,81.92
2022-10-29T05:11:28.825Z,81.78
2022-10-29T05:13:56.982Z,81.96
2022-10-29T05:16:24.794Z,82.60
2022-10-29T05:18:52.636Z,82.83
2022-10-29T05:21:20.574Z,82.47
2022-10-29T05:23:48.401Z,82.95
2022-10-29T05:26:16.170Z,83.07
2022-10-29T05:28:44.060Z,83.42
2022-10-29T05:31:11.895Z,83.32
2022-10-29T05:33:39.766Z,83.44
2022-10-29T05:36:07.890Z,83.13
2022-10-29T05:38:35.724Z,83.69
2022-10-29T05:41:03.659Z,83.13
2022-10-29T05:43:31.520Z,82.85
2022-10-29T05:46:01.792Z,82.13
2022-10-29T05:48:29.504Z,81.99
2022-10-29T05:50:58.030Z,81.62
2022-10-29T05:53:25.833Z,81.20
2022-10-29T05:55:53.583Z,81.29
2022-10-29T05:58:21.533Z,81.35
2022-10-29T06:00:49.336Z,81.42
2022-10-29T06:03:19.918Z,81.74
2022-10-29T06:05:48.786Z,82.26
2022-10-29T06:08:17.919Z,82.14
2022-10-29T06:10:45.907Z,82.24
2022-10-29T06:13:16.389Z,82.46
2022-10-29T06:15:45.146Z,82.50
2022-10-29T06:18:13.654Z,82.85
2022-10-29T06:20:43.608Z,82.46
2022-10-29T06:23:12.112Z,82.31
2022-10-29T06:25:39.957Z,82.63
2022-10-29T06:28:12.059Z,81.87
2022-10-29T06:30:40.102Z,82.78
2022-10-29T06:33:07.973Z,82.17
2022-10-29T06:38:07.768Z,82.81
2022-10-29T06:40:40.932Z,82.57
2022-10-29T06:43:11.675Z,82.70
2022-10-29T06:45:40.266Z,82.83
2022-10-29T06:48:08.133Z,82.47
2022-10-29T06:50:35.875Z,82.29
2022-10-29T06:53:05.976Z,82.10
2022-10-29T06:55:34.917Z,82.07
2022-10-29T06:58:05.985Z,81.87
2022-10-29T07:00:35.409Z,81.55
2022-10-29T07:03:05.288Z,81.38
2022-10-29T07:05:33.936Z,81.19
2022-10-29T07:08:02.119Z,81.04
2022-10-29T07:10:31.873Z,80.76
2022-10-29T07:13:00.381Z,80.78
2022-10-29T07:15:30.660Z,80.62
2022-10-29T07:18:01.522Z,80.59
2022-10-29T07:20:31.978Z,80.45
2022-10-29T07:23:01.359Z,80.16
2022-10-29T07:25:30.484Z,79.97
2022-10-29T07:28:10.531Z,79.84
2022-10-29T07:30:38.583Z,79.57
2022-10-29T07:33:06.713Z,79.17
2022-10-29T07:35:35.062Z,79.11
2022-10-29T07:38:09.952Z,78.82
2022-10-29T07:40:40.770Z,78.88
2022-10-29T07:43:09.364Z,78.87
2022-10-29T07:45:37.751Z,78.72
2022-10-29T07:48:07.923Z,78.93
2022-10-29T07:50:37.650Z,78.68
2022-10-29T07:53:07.347Z,78.01
2022-10-29T07:55:35.677Z,77.80
2022-10-29T07:58:06.438Z,78.06
2022-10-29T08:00:40.756Z,77.74
2022-10-29T08:03:11.632Z,75.92
2022-10-29T08:05:42.804Z,75.27
2022-10-29T08:08:11.247Z,76.05
2022-10-29T08:10:39.308Z,76.49
2022-10-29T08:13:07.656Z,76.72
2022-10-29T08:15:35.534Z,75.95
2022-10-29T08:18:09.295Z,75.68
2022-10-29T08:20:37.130Z,74.45
2022-10-29T08:23:05.210Z,75.35
2022-10-29T08:25:33.029Z,73.14
2022-10-29T08:28:02.460Z,74.07
2022-10-29T08:30:32.015Z,74.33
2022-10-29T08:33:00.934Z,74.27
2022-10-29T08:35:29.327Z,74.01
2022-10-29T08:37:58.555Z,71.95
2022-10-29T08:40:42.503Z,70.97
2022-10-29T08:43:32.674Z,70.27
2022-10-29T08:46:01.370Z,70.96
2022-10-29T08:48:46.499Z,70.33
2022-10-29T08:51:35.540Z,71.09
2022-10-29T08:54:29.766Z,70.96
2022-10-29T08:56:59.598Z,69.11
2022-10-29T08:59:32.238Z,69.12
2022-10-29T09:02:00.671Z,69.36
2022-10-29T09:04:35.082Z,68.62
2022-10-29T09:07:34.604Z,68.75
2022-10-29T09:10:16.749Z,68.13
2022-10-29T09:13:09.635Z,67.31
2022-10-29T09:16:04.233Z,67.52
2022-10-29T09:18:57.113Z,67.18
2022-10-29T09:21:33.654Z,66.93
2022-10-29T09:24:10.742Z,66.22
2022-10-29T09:26:58.331Z,66.51
2022-10-29T09:30:04.535Z,65.26
2022-10-29T09:32:40.172Z,64.81
2022-10-29T09:35:15.891Z,64.22
2022-10-29T09:38:03.740Z,63.90
2022-10-29T09:40:36.911Z,63.10
2022-10-29T09:43:19.773Z,63.95
2022-10-29T09:45:58.271Z,63.07
2022-10-29T09:48:34.079Z,62.09
2022-10-29T09:51:19.812Z,62.40
2022-10-29T09:53:49.552Z,63.06
2022-10-29T09:56:18.637Z,63.38
2022-10-29T09:58:57.768Z,63.17
2022-10-29T10:01:26.837Z,63.21
2022-10-29T10:07:02.547Z,61.62
2022-10-29T10:09:52.079Z,62.10
2022-10-29T10:12:22.924Z,62.16
2022-10-29T10:15:03.805Z,62.17
2022-10-29T10:17:57.155Z,62.19
2022-10-29T10:20:40.863Z,61.69
2022-10-29T10:23:30.993Z,61.33
2022-10-29T10:26:03.706Z,61.04
2022-10-29T10:28:34.766Z,60.41
2022-10-29T10:31:11.787Z,60.18
2022-10-29T10:33:56.139Z,59.69
2022-10-29T10:36:26.773Z,59.53
2022-10-29T10:39:00.261Z,59.83
2022-10-29T10:41:32.636Z,59.11
2022-10-29T10:44:03.676Z,58.00
2022-10-29T10:46:39.798Z,57.66
2022-10-29T10:49:28.597Z,57.46
2022-10-29T10:51:58.102Z,57.05
2022-10-29T10:54:37.109Z,56.82
2022-10-29T10:57:21.566Z,56.48
2022-10-29T11:00:10.652Z,56.38
2022-10-29T11:02:51.490Z,54.42
2022-10-29T11:05:22.972Z,54.21
2022-10-29T11:08:02.063Z,53.53
2022-10-29T11:10:40.511Z,53.17
2022-10-29T11:13:16.675Z,52.10
2022-10-29T11:16:01.753Z,51.63
2022-10-29T11:18:36.471Z,51.31
2022-10-29T11:21:26.454Z,50.70
2022-10-29T11:24:05.237Z,50.00
2022-10-29T11:26:41.347Z,49.36
2022-10-29T11:29:14.962Z,49.13
2022-10-29T11:31:57.163Z,49.33
2022-10-29T11:34:50.315Z,49.61
2022-10-29T11:37:38.906Z,50.03
2022-10-29T11:40:18.256Z,50.32
2022-10-29T11:42:46.110Z,50.05
2022-10-29T11:45:20.514Z,49.67
2022-10-29T11:48:10.955Z,50.11
2022-10-29T11:51:00.917Z,50.18
2022-10-29T11:53:56.401Z,50.03
2022-10-29T11:56:46.302Z,50.19
2022-10-29T11:59:26.883Z,48.64
2022-10-29T12:02:23.344Z,48.15
2022-10-29T12:05:01.993Z,47.86
2022-10-29T12:08:04.843Z,47.03
2022-10-29T12:10:47.857Z,46.90
2022-10-29T12:13:34.548Z,46.71
2022-10-29T12:16:26.262Z,46.11
2022-10-29T12:19:06.648Z,45.95
2022-10-29T12:21:50.560Z,44.70
2022-10-29T12:24:38.709Z,43.32
2022-10-29T12:27:24.059Z,42.88
2022-10-29T12:30:00.968Z,42.40
2022-10-29T12:32:40.536Z,41.30
2022-10-29T12:35:21.551Z,41.50
2022-10-29T12:38:18.046Z,40.68
2022-10-29T12:40:50.712Z,40.65
2022-10-29T12:43:26.266Z,40.63
2022-10-29T12:46:19.940Z,40.09
2022-10-29T12:49:07.359Z,41.01
2022-10-29T12:51:42.014Z,41.82
2022-10-29T12:54:43.857Z,42.84
2022-10-29T12:57:33.200Z,43.22
2022-10-29T13:00:40.873Z,43.40
2022-10-29T13:03:09.110Z,43.52
2022-10-29T13:05:41.871Z,42.70
2022-10-29T13:08:19.144Z,42.10
2022-10-29T13:10:51.203Z,41.77
2022-10-29T13:13:25.785Z,40.83
2022-10-29T13:16:01.918Z,40.65
2022-10-29T13:18:59.956Z,41.02
2022-10-29T13:21:59.378Z,40.76
2022-10-29T13:24:28.429Z,40.93
2022-10-29T13:27:05.859Z,41.17
2022-10-29T13:29:47.980Z,41.38
2022-10-29T13:32:35.221Z,41.46
2022-10-29T13:35:24.841Z,40.70
2022-10-29T13:37:54.792Z,41.17
2022-10-29T13:41:00.574Z,41.32
2022-10-29T13:43:31.664Z,41.03
2022-10-29T13:46:10.158Z,40.85
2022-10-29T13:48:40.022Z,41.06
2022-10-29T13:51:11.974Z,42.54
2022-10-29T13:53:52.916Z,43.28
2022-10-29T13:56:31.122Z,43.64
2022-10-29T13:59:02.327Z,44.01
2022-10-29T14:01:37.902Z,44.25
2022-10-29T14:04:22.197Z,44.43
2022-10-29T14:06:52.032Z,44.79
2022-10-29T14:09:26.445Z,45.42
2022-10-29T14:12:01.158Z,45.40
2022-10-29T14:14:37.127Z,45.95
2022-10-29T14:17:14.537Z,45.91
2022-10-29T14:19:46.688Z,45.79
2022-10-29T14:22:23.127Z,45.58
2022-10-29T14:24:51.067Z,45.27
2022-10-29T14:27:18.887Z,45.32
2022-10-29T14:29:48.573Z,45.63
2022-10-29T14:32:22.547Z,45.90
2022-10-29T14:34:52.541Z,46.14
2022-10-29T14:37:37.472Z,47.28
2022-10-29T14:40:15.415Z,47.52
2022-10-29T14:42:46.117Z,47.84
2022-10-29T14:45:20.519Z,48.16
2022-10-29T14:47:54.554Z,48.66
2022-10-29T14:50:25.603Z,48.87
2022-10-29T14:52:58.536Z,49.17
2022-10-29T14:55:31.251Z,49.69
2022-10-29T14:58:05.409Z,50.91
2022-10-29T15:00:37.093Z,52.85
2022-10-29T15:03:07.391Z,55.26
2022-10-29T15:05:37.614Z,56.79
2022-10-29T15:08:19.190Z,58.08
2022-10-29T15:10:50.170Z,58.84
2022-10-29T15:13:34.943Z,59.80
2022-10-29T15:16:08.760Z,60.08
2022-10-29T15:18:38.205Z,61.31
2022-10-29T15:21:06.460Z,63.17
2022-10-29T15:23:41.806Z,63.60
2022-10-29T15:26:16.295Z,62.77
2022-10-29T15:28:45.798Z,63.12
2022-10-29T15:31:29.455Z,63.38
2022-10-29T15:34:07.399Z,65.11
2022-10-29T15:36:50.737Z,67.31
2022-10-29T15:39:26.685Z,65.71
2022-10-29T15:41:58.767Z,67.66
2022-10-29T15:44:31.488Z,66.65
2022-10-29T15:47:01.652Z,66.69
2022-10-29T15:49:32.725Z,68.70
2022-10-29T15:52:01.114Z,67.23
2022-10-29T15:54:29.698Z,68.38
2022-10-29T15:56:58.227Z,69.28
2022-10-29T15:59:27.417Z,69.01
2022-10-29T16:01:55.466Z,69.66
2022-10-29T16:04:23.517Z,71.43
2022-10-29T16:06:51.774Z,70.16
2022-10-29T16:09:20.862Z,72.09
2022-10-29T16:11:50.832Z,71.62
2022-10-29T16:14:18.741Z,70.69
2022-10-29T16:16:46.674Z,70.46
2022-10-29T16:19:14.523Z,70.22
2022-10-29T16:21:42.587Z,70.11
2022-10-29T16:24:15.661Z,69.68
2022-10-29T16:26:43.766Z,69.88
2022-10-29T16:29:12.004Z,69.87
2022-10-29T16:31:39.833Z,69.76
2022-10-29T16:34:13.978Z,70.21
2022-10-29T16:36:41.978Z,71.17
2022-10-29T16:39:09.812Z,70.71
2022-10-29T16:41:37.833Z,71.55
2022-10-29T16:44:05.759Z,71.29
2022-10-29T16:46:33.995Z,71.46
2022-10-29T16:49:01.950Z,71.89
2022-10-29T16:51:29.881Z,71.94
2022-10-29T16:53:57.813Z,72.15
2022-10-29T16:56:25.787Z,71.82
2022-10-29T16:59:01.746Z,72.18
2022-10-29T17:01:30.153Z,72.12
2022-10-29T17:03:58.203Z,71.76
2022-10-29T17:06:26.263Z,71.72
2022-10-29T17:08:54.217Z,71.61
2022-10-29T17:11:22.209Z,71.53
2022-10-29T17:13:50.089Z,71.89
2022-10-29T17:16:19.002Z,72.18
2022-10-29T17:18:50.630Z,72.12
2022-10-29T17:21:18.776Z,72.00
2022-10-29T17:23:46.728Z,71.92
2022-10-29T17:26:15.065Z,72.11
2022-10-29T17:28:43.233Z,72.52
2022-10-29T17:31:11.460Z,72.36
2022-10-29T17:33:40.246Z,72.35
2022-10-29T17:36:12.676Z,72.32
2022-10-29T17:38:41.102Z,72.17
2022-10-29T17:41:09.150Z,72.18
2022-10-29T17:43:38.855Z,72.29
2022-10-29T17:46:08.718Z,72.61
2022-10-29T17:48:36.820Z,73.10
2022-10-29T17:51:04.918Z,73.57
2022-10-29T17:53:32.975Z,75.20
2022-10-29T17:56:01.360Z,74.38
2022-10-29T17:58:31.264Z,74.74
2022-10-29T18:01:08.336Z,75.19
2022-10-29T18:03:37.371Z,74.91
2022-10-29T18:06:08.014Z,74.70
2022-10-29T18:08:37.748Z,74.83
2022-10-29T18:11:10.182Z,76.15
2022-10-29T18:13:41.396Z,75.61
2022-10-29T18:16:13.404Z,75.41
2022-10-29T18:18:54.567Z,75.51
2022-10-29T18:21:31.596Z,75.54
2022-10-29T18:23:59.675Z,75.55
2022-10-29T18:26:31.837Z,75.51
2022-10-29T18:29:02.846Z,76.76
2022-10-29T18:31:33.204Z,75.98
2022-10-29T18:34:05.361Z,76.00
2022-10-29T18:36:35.667Z,75.92
2022-10-29T18:39:05.146Z,76.01
2022-10-29T18:41:34.347Z,76.06
2022-10-29T18:44:02.483Z,76.44
2022-10-29T18:46:30.374Z,76.13
2022-10-29T18:49:00.087Z,76.01
2022-10-29T18:51:30.423Z,76.56
2022-10-29T18:53:59.334Z,76.32
2022-10-29T18:56:28.638Z,76.39
2022-10-29T18:58:57.686Z,76.49
2022-10-29T19:01:31.390Z,76.59
2022-10-29T19:04:02.729Z,76.48
2022-10-29T19:06:33.243Z,76.73
2022-10-29T19:09:03.399Z,76.76
2022-10-29T19:11:31.452Z,76.93
2022-10-29T19:14:02.128Z,77.06
2022-10-29T19:16:31.190Z,77.20
2022-10-29T19:19:03.113Z,77.20
2022-10-29T19:21:33.885Z,77.76
2022-10-29T19:24:03.332Z,77.42
2022-10-29T19:26:33.766Z,77.79
2022-10-29T19:29:03.986Z,77.51
2022-10-29T19:31:34.396Z,77.83
2022-10-29T19:34:06.119Z,78.81
2022-10-29T19:36:36.364Z,78.18
2022-10-29T19:39:05.191Z,78.18
2022-10-29T19:41:33.292Z,78.23
2022-10-29T19:44:02.121Z,78.31
2022-10-29T19:46:30.242Z,78.08
2022-10-29T19:48:59.136Z,77.93
2022-10-29T19:51:27.381Z,78.11
2022-10-29T19:53:58.345Z,78.07
2022-10-29T19:56:26.247Z,78.38
2022-10-29T19:58:54.052Z,78.74
2022-10-29T20:01:22.017Z,78.19
2022-10-29T20:03:49.960Z,78.24
2022-10-29T20:06:18.029Z,79.09
2022-10-29T20:08:46.446Z,80.43
2022-10-29T20:11:14.719Z,84.39
2022-10-29T20:13:42.508Z,81.92
2022-10-29T20:16:17.034Z,81.20
2022-10-29T20:18:45.041Z,80.77
2022-10-29T20:21:13.747Z,80.92
2022-10-29T20:23:43.241Z,80.88
2022-10-29T20:26:11.579Z,80.70
2022-10-29T20:28:39.536Z,80.62
2022-10-29T20:31:30.027Z,80.57
2022-10-29T20:34:00.409Z,81.06
2022-10-29T20:36:32.025Z,80.66
2022-10-29T20:39:00.605Z,80.64
2022-10-29T20:41:30.300Z,82.95
2022-10-29T20:43:59.922Z,81.62
2022-10-29T20:46:29.099Z,81.56
2022-10-29T20:48:57.407Z,81.61
2022-10-29T20:51:26.538Z,81.30
2022-10-29T20:53:55.057Z,81.62
2022-10-29T20:56:25.600Z,81.66
2022-10-29T20:58:54.378Z,82.02
2022-10-29T21:01:24.514Z,81.89
2022-10-29T21:03:52.848Z,81.49
2022-10-29T21:06:21.551Z,81.04
2022-10-29T21:08:51.495Z,80.68
2022-10-29T21:11:22.989Z,80.46
2022-10-29T21:13:51.559Z,80.47
2022-10-29T21:16:26.482Z,80.75
2022-10-29T21:19:00.773Z,80.77
2022-10-29T21:21:29.635Z,81.93
2022-10-29T21:23:58.090Z,81.27
2022-10-29T21:26:29.611Z,81.04
2022-10-29T21:28:58.591Z,81.30
2022-10-29T21:31:26.515Z,81.52
2022-10-29T21:33:55.438Z,81.53
2022-10-29T21:36:24.326Z,82.03
2022-10-29T21:38:52.307Z,86.58
2022-10-29T21:41:20.162Z,85.26
2022-10-29T21:43:48.063Z,83.79
2022-10-29T21:46:15.879Z,83.37
2022-10-29T21:48:43.781Z,83.38
2022-10-29T21:51:13.908Z,83.06
2022-10-29T21:53:42.238Z,82.87
2022-10-29T21:56:13.578Z,82.82
2022-10-29T21:58:42.220Z,82.69
2022-10-29T22:01:14.454Z,83.12
2022-10-29T22:03:45.922Z,83.03
2022-10-29T22:06:16.953Z,83.01
2022-10-29T22:08:46.827Z,83.18
2022-10-29T22:11:15.460Z,82.81
2022-10-29T22:13:43.311Z,82.80
2022-10-29T22:16:12.384Z,82.88
2022-10-29T22:18:40.844Z,82.34
2022-10-29T22:21:15.133Z,82.78
2022-10-29T22:23:47.703Z,82.43
2022-10-29T22:26:19.651Z,82.56
2022-10-29T22:28:48.493Z,82.36
2022-10-29T22:31:18.892Z,82.46
2022-10-29T22:33:47.948Z,82.82
2022-10-29T22:36:18.689Z,82.72
2022-10-29T22:38:46.697Z,82.87
2022-10-29T22:41:17.041Z,82.92
2022-10-29T22:43:45.069Z,83.04
2022-10-29T22:46:14.852Z,82.89
2022-10-29T22:48:43.967Z,83.21
2022-10-29T22:51:15.066Z,83.30
2022-10-29T22:53:45.153Z,83.63
2022-10-29T22:56:15.812Z,83.56
2022-10-29T22:58:44.490Z,84.16
2022-10-29T23:01:15.522Z,84.18
2022-10-29T23:03:44.612Z,84.51
2022-10-29T23:06:17.830Z,85.09
2022-10-29T23:08:46.874Z,85.04
2022-10-29T23:11:19.803Z,84.80
2022-10-29T23:13:50.185Z,84.17
2022-10-29T23:16:18.042Z,84.60
2022-10-29T23:18:50.888Z,84.27
2022-10-29T23:21:19.365Z,84.47
2022-10-29T23:23:49.805Z,84.44
2022-10-29T23:26:20.814Z,84.39
2022-10-29T23:28:49.219Z,84.34
2022-10-29T23:31:21.153Z,84.37
2022-10-29T23:33:52.099Z,84.48
2022-10-29T23:36:22.037Z,84.34
2022-10-29T23:38:58.685Z,84.52
2022-10-29T23:41:28.507Z,84.39
2022-10-29T23:43:59.861Z,84.81
2022-10-29T23:46:27.975Z,84.71
2022-10-29T23:48:55.930Z,84.27
2022-10-29T23:51:23.846Z,84.16
2022-10-29T23:53:54.872Z,84.09
2022-10-29T23:56:25.766Z,83.97
2022-10-29T23:58:53.651Z,84.03
